Time;durP1;ratioP1;P1;durP2;ratioP2;P2;SDS_P1;SDS_P2;PMS_P1;PMS_P2;Temp;Humidity;BMP_temperature;BMP_pressure;BME280_temperature;BME280_humidity;BME280_pressure;Samples;Min_cycle;Max_cycle;Signal;HPM_P1;HPM_P2
2022/04/16 00:03:26;;;;;;;;;;;;;;;7.24;83.00;96455.41;10468378;28;1518;-72
2022/04/16 00:08:29;;;;;;;;;;;;;;;7.21;82.77;96455.88;10458320;28;1998;-72
2022/04/16 00:13:33;;;;;;;;;;;;;;;7.16;82.40;96453.09;10460493;28;1609;-73
2022/04/16 00:18:37;;;;;;;;;;;;;;;7.14;82.97;96460.56;10456926;28;1530;-73
2022/04/16 00:23:42;;;;;;;;;;;;;;;7.12;83.04;96443.91;10440879;28;1691;-72
2022/04/16 00:28:49;;;;;;;;;;;;;;;7.00;83.56;96442.09;10438219;28;2242;-72
2022/04/16 00:33:53;;;;;;;;;;;;;;;6.88;84.70;96449.31;10456039;28;1672;-71
2022/04/16 00:38:58;;;;;;;;;;;;;;;6.84;85.02;96439.31;10451707;28;1973;-73
2022/04/16 00:44:01;;;;;;;;;;;;;;;6.79;84.79;96429.31;10462043;28;1970;-71
2022/04/16 00:49:05;;;;;;;;;;;;;;;6.73;85.89;96430.25;10465949;28;1981;-71
2022/04/16 00:54:09;;;;;;;;;;;;;;;6.65;86.22;96431.41;10467171;28;1971;-73
2022/04/16 00:59:13;;;;;;;;;;;;;;;6.56;86.62;96432.81;10469826;28;2049;-73
2022/04/16 01:04:17;;;;;;;;;;;;;;;6.55;87.46;96430.34;10444541;28;2263;-72
2022/04/16 01:09:21;;;;;;;;;;;;;;;6.53;87.40;96427.91;10467773;28;1965;-72
2022/04/16 01:14:32;;;;;;;;;;;;;;;6.42;88.41;96428.72;10464630;28;2014;-73
2022/04/16 01:19:37;;;;;;;;;;;;;;;6.43;88.83;96419.69;10448565;28;2011;-72
2022/04/16 01:24:43;;;;;;;;;;;;;;;6.41;88.96;96427.09;10473104;28;1836;-73
2022/04/16 01:29:48;;;;;;;;;;;;;;;6.44;89.49;96438.16;10473389;28;1977;-73
2022/04/16 01:34:53;;;;;;;;;;;;;;;6.31;89.50;96427.69;10461756;28;2023;-73
2022/04/16 01:39:56;;;;;;;;;;;;;;;6.28;89.95;96425.47;10461543;28;1915;-72
2022/04/16 01:45:01;;;;;;;;;;;;;;;6.22;90.32;96429.84;10447353;28;1880;-72
2022/04/16 01:50:05;;;;;;;;;;;;;;;6.17;90.20;96429.75;10446901;28;1891;-72
2022/04/16 01:55:10;;;;;;;;;;;;;;;6.11;90.61;96425.34;10450925;28;1911;-72
2022/04/16 02:00:14;;;;;;;;;;;;;;;6.03;91.94;96424.84;10461139;28;1924;-73
2022/04/16 02:05:18;;;;;;;;;;;;;;;6.01;92.37;96422.41;10449425;28;1888;-73
2022/04/16 02:10:22;;;;;;;;;;;;;;;6.02;92.63;96426.69;10449748;28;1914;-73
2022/04/16 02:15:25;;;;;;;;;;;;;;;6.06;92.91;96437.75;10465605;28;1819;-73
2022/04/16 02:20:29;;;;;;;;;;;;;;;5.94;93.31;96429.69;10471575;28;1816;-73
2022/04/16 02:25:33;;;;;;;;;;;;;;;5.75;94.43;96431.56;10462720;28;1759;-73
2022/04/16 02:30:37;;;;;;;;;;;;;;;5.71;95.67;96422.38;10463966;28;1986;-73
2022/04/16 02:35:40;;;;;;;;;;;;;;;5.60;96.70;96416.00;10448458;28;1796;-73
2022/04/16 02:40:44;;;;;;;;;;;;;;;5.50;98.15;96421.03;10462539;28;1732;-72
2022/04/16 02:51:09;;;;;;;;;;;;;;;5.37;99.52;96422.03;10460288;28;1977;-72
2022/04/16 02:56:13;;;;;;;;;;;;;;;5.35;100.00;96429.44;10460101;28;1471;-73
2022/04/16 03:01:17;;;;;;;;;;;;;;;5.26;100.00;96420.09;10447279;28;4015;-73
2022/04/16 03:06:20;;;;;;;;;;;;;;;5.25;100.00;96426.47;10457603;28;1495;-73
2022/04/16 03:11:24;;;;;;;;;;;;;;;5.17;100.00;96424.13;10469138;28;1975;-71
2022/04/16 03:22:00;;;;;;;;;;;;;;;4.97;100.00;96426.22;10356342;28;1607;-72
2022/04/16 03:27:03;;;;;;;;;;;;;;;4.84;100.00;96420.00;10467031;28;1534;-72
2022/04/16 03:32:07;;;;;;;;;;;;;;;4.87;100.00;96416.88;10441933;28;1902;-73
2022/04/16 03:37:11;;;;;;;;;;;;;;;4.79;100.00;96419.84;10445167;28;1428;-73
2022/04/16 03:42:15;;;;;;;;;;;;;;;4.77;100.00;96419.25;10458582;28;1427;-72
2022/04/16 03:47:19;;;;;;;;;;;;;;;4.69;100.00;96416.84;10458775;28;1545;-72
2022/04/16 03:52:22;;;;;;;;;;;;;;;4.66;100.00;96429.81;10438463;28;1961;-72
2022/04/16 04:02:46;;;;;;;;;;;;;;;4.70;100.00;96433.66;10435703;28;1460;-72
2022/04/16 04:07:50;;;;;;;;;;;;;;;4.57;100.00;96434.59;10439855;28;1981;-72
2022/04/16 04:12:53;;;;;;;;;;;;;;;4.60;100.00;96434.97;10461153;28;1474;-72
2022/04/16 04:17:56;;;;;;;;;;;;;;;4.58;100.00;96449.53;10445592;28;2029;-71
2022/04/16 04:22:59;;;;;;;;;;;;;;;4.58;100.00;96444.19;10444549;28;1499;-73
2022/04/16 04:28:03;;;;;;;;;;;;;;;4.60;100.00;96458.13;10465995;28;1975;-72
2022/04/16 04:33:06;;;;;;;;;;;;;;;4.53;100.00;96452.88;10450936;22;2067;-71
2022/04/16 04:38:09;;;;;;;;;;;;;;;4.45;100.00;96457.63;10431401;28;1525;-71
2022/04/16 04:43:13;;;;;;;;;;;;;;;4.51;100.00;96464.75;10447220;28;1462;-70
2022/04/16 04:48:16;;;;;;;;;;;;;;;4.53;100.00;96468.84;10446273;28;1980;-71
2022/04/16 04:53:19;;;;;;;;;;;;;;;4.61;100.00;96470.41;10470167;28;1546;-70
2022/04/16 04:58:23;;;;;;;;;;;;;;;4.76;100.00;96467.41;10472359;28;1402;-71
2022/04/16 05:03:26;;;;;;;;;;;;;;;5.02;100.00;96482.28;10464914;28;1494;-71
2022/04/16 05:08:29;;;;;;;;;;;;;;;5.38;100.00;96476.97;10440030;28;1985;-70
2022/04/16 05:13:33;;;;;;;;;;;;;;;5.64;100.00;96477.69;10474227;28;1479;-70
2022/04/16 05:18:36;;;;;;;;;;;;;;;5.99;99.99;96471.72;10469277;28;1443;-70
2022/04/16 05:23:40;;;;;;;;;;;;;;;6.15;98.36;96481.72;10446603;28;1738;-70
2022/04/16 05:28:44;;;;;;;;;;;;;;;6.39;97.15;96486.09;10465630;28;1910;-71
2022/04/16 05:39:11;;;;;;;;;;;;;;;6.54;97.15;96493.66;10462081;28;1498;-72
2022/04/16 05:44:15;;;;;;;;;;;;;;;6.45;96.62;96498.53;10462416;28;1553;-71
2022/04/16 05:49:24;;;;;;;;;;;;;;;6.43;96.07;96489.94;10463184;28;1979;-71
2022/04/16 05:54:34;;;;;;;;;;;;;;;6.41;96.56;96491.19;10467684;28;1495;-72
2022/04/16 05:59:38;;;;;;;;;;;;;;;6.59;96.00;96498.31;10447714;28;1809;-71
2022/04/16 06:04:41;;;;;;;;;;;;;;;6.86;94.21;96490.66;10459597;28;1538;-71
2022/04/16 06:09:45;;;;;;;;;;;;;;;7.34;91.46;96489.59;10466800;28;1922;-70
2022/04/16 06:14:49;;;;;;;;;;;;;;;7.40;90.53;96486.78;10466743;28;1577;-72
2022/04/16 06:19:52;;;;;;;;;;;;;;;8.06;87.20;96498.78;10448275;28;1510;-72
2022/04/16 06:24:56;;;;;;;;;;;;;;;7.50;88.99;96500.34;10451865;28;1500;-72
2022/04/16 06:30:00;;;;;;;;;;;;;;;7.37;91.10;96500.59;10463729;28;1976;-72
2022/04/16 06:35:05;;;;;;;;;;;;;;;7.55;89.06;96500.47;10442007;28;1817;-71
2022/04/16 06:40:08;;;;;;;;;;;;;;;7.68;88.18;96501.25;10448028;28;1640;-71
2022/04/16 06:45:12;;;;;;;;;;;;;;;7.60;89.32;96505.09;10460979;28;1485;-72
2022/04/16 06:50:16;;;;;;;;;;;;;;;7.32;89.65;96513.91;10443230;28;1973;-71
2022/04/16 06:55:21;;;;;;;;;;;;;;;7.37;91.34;96505.97;10466626;28;1502;-71
2022/04/16 07:00:26;;;;;;;;;;;;;;;7.31;90.12;96522.94;10444037;28;1659;-72
2022/04/16 07:05:30;;;;;;;;;;;;;;;7.35;90.10;96513.41;10467179;28;1462;-71
2022/04/16 07:10:34;;;;;;;;;;;;;;;7.39;90.22;96522.59;10471737;28;1961;-71
2022/04/16 07:15:38;;;;;;;;;;;;;;;7.18;91.35;96533.88;10449038;28;1709;-72
2022/04/16 07:20:42;;;;;;;;;;;;;;;7.00;92.74;96538.31;10452188;28;1479;-71
2022/04/16 07:25:45;;;;;;;;;;;;;;;6.98;94.04;96540.41;10448586;28;1449;-70
2022/04/16 07:30:49;;;;;;;;;;;;;;;7.29;93.54;96543.78;10444778;28;1992;-70
2022/04/16 07:35:53;;;;;;;;;;;;;;;7.28;92.07;96550.16;10496321;28;1464;-71
2022/04/16 07:40:56;;;;;;;;;;;;;;;7.27;93.39;96553.91;10499655;28;1870;-72
2022/04/16 07:46:00;;;;;;;;;;;;;;;7.18;93.85;96549.94;10487728;28;1473;-71
2022/04/16 07:51:03;;;;;;;;;;;;;;;7.39;93.08;96552.03;10496141;28;1894;-71
2022/04/16 07:56:07;;;;;;;;;;;;;;;7.70;90.90;96568.72;10503849;28;1464;-70
2022/04/16 08:01:10;;;;;;;;;;;8.50;99.90;;;7.76;90.03;96560.59;10486066;28;1506;-71
2022/04/16 08:06:14;;;;;;;;;;;8.60;99.90;;;8.49;86.25;96564.41;10483494;28;1450;-72
2022/04/16 08:11:17;;;;;;;;;;;9.10;99.90;;;8.38;86.21;96559.91;10449046;28;1906;-72
2022/04/16 08:16:20;;;;;;;;;;;9.20;99.90;;;8.09;86.77;96562.56;10475648;28;1466;-72
2022/04/16 08:21:25;;;;;;;;;;;9.20;99.90;;;8.00;87.50;96568.53;10466602;28;1496;-72
2022/04/16 08:26:28;;;;;;;;;;;9.10;99.90;;;8.17;87.57;96557.88;10458805;28;1619;-71
2022/04/16 08:31:31;;;;;;;;;;;9.20;99.90;;;8.08;87.24;96562.81;10443498;28;1928;-70
2022/04/16 08:36:37;;;;;;;;;;;9.10;99.90;;;7.98;87.51;96571.44;10449069;28;1831;-70
2022/04/16 08:41:40;;;;;;;;;;;9.00;99.90;;;8.68;84.91;96564.19;10444423;28;1329;-70
2022/04/16 08:46:44;;;;;;;;;;;9.40;99.90;;;8.61;83.20;96573.22;10453573;28;1450;-71
2022/04/16 08:51:47;;;;;;;;;;;9.60;99.90;;;8.46;82.37;96572.94;10443369;28;1914;-72
2022/04/16 08:56:50;;;;;;;;;;;9.60;99.90;;;8.64;82.58;96585.28;10441995;28;1483;-72
2022/04/16 09:01:53;;;;;;;;;;;9.60;99.90;;;8.12;83.86;96578.16;10460838;28;1475;-72
2022/04/16 09:06:57;;;;;;;;;;;9.50;99.90;;;8.11;83.91;96581.88;10446723;28;1504;-72
2022/04/16 09:12:00;;;;;;;;;;;9.40;99.90;;;8.27;83.15;96584.84;10448350;28;1894;-72
2022/04/16 09:17:03;;;;;;;;;;;9.10;99.90;;;8.35;85.27;96603.25;10467969;28;1478;-72
2022/04/16 09:22:07;;;;;;;;;;;9.20;99.90;;;8.37;85.99;96591.25;10475279;28;1401;-72
2022/04/16 09:27:10;;;;;;;;;;;9.30;99.90;;;8.68;83.41;96593.69;10477170;28;1505;-71
2022/04/16 09:32:13;;;;;;;;;;;9.50;99.90;;;8.85;81.11;96589.16;10460489;28;1931;-70
2022/04/16 09:37:17;;;;;;;;;;;9.80;99.90;;;8.81;78.79;96598.72;10456118;28;1467;-72
2022/04/16 09:42:20;;;;;;;;;;;9.80;99.90;;;8.91;78.74;96597.03;10471827;28;1621;-72
2022/04/16 09:47:23;;;;;;;;;;;9.90;99.90;;;9.14;76.58;96595.25;10453263;28;1527;-71
2022/04/16 09:52:26;;;;;;;;;;;10.00;99.90;;;9.18;76.11;96597.22;10452219;28;1977;-71
2022/04/16 09:57:30;;;;;;;;;;;10.10;99.90;;;8.72;77.92;96601.00;10450412;28;1887;-71
2022/04/16 10:02:34;;;;;;;;;;;10.00;99.90;;;9.10;76.85;96608.34;10461843;28;1402;-72
2022/04/16 10:07:37;;;;;;;;;;;10.00;99.90;;;8.79;75.24;96615.06;10444024;28;2485;-71
2022/04/16 10:18:02;;;;;;;;;;;10.00;99.90;;;9.99;69.58;96610.19;10472132;28;1502;-72
2022/04/16 10:23:07;;;;;;;;;;;10.70;99.90;;;9.52;71.87;96612.47;10459963;28;1434;-72
2022/04/16 10:28:10;;;;;;;;;;;10.70;99.90;;;9.41;73.00;96611.50;10476270;28;1287;-72
2022/04/16 10:33:13;;;;;;;;;;;10.40;99.90;;;9.13;74.36;96620.47;10479508;22;1974;-71
2022/04/16 10:38:16;;;;;;;;;;;10.20;99.90;;;8.64;81.41;96622.81;10445971;28;1514;-70
2022/04/16 10:43:19;;;;;;;;;;;9.90;99.90;;;7.90;92.68;96628.03;10477112;28;1529;-71
2022/04/16 10:48:23;;;;;;;;;;;9.40;99.90;;;7.78;96.50;96629.94;10504554;28;1639;-72
2022/04/16 10:53:26;;;;;;;;;;;9.00;99.90;;;7.87;99.79;96633.84;10509489;28;1914;-71
2022/04/16 10:58:30;;;;;;;;;;;8.80;99.90;;;8.42;98.30;96636.09;10491617;28;1236;-70
2022/04/16 11:03:34;;;;;;;;;;;9.20;99.90;;;8.47;93.64;96638.88;10506506;28;1475;-72
2022/04/16 11:08:38;;;;;;;;;;;9.50;99.90;;;9.31;86.14;96638.19;10503427;28;1562;-71
2022/04/16 11:13:42;;;;;;;;;;;10.00;99.90;;;9.21;81.25;96639.63;10520528;28;1929;-72
2022/04/16 11:18:47;;;;;;;;;;;10.30;99.90;;;9.31;80.00;96636.31;10524664;28;1506;-71
2022/04/16 11:23:51;;;;;;;;;;;10.30;99.90;;;9.64;77.05;96630.09;10541199;28;1584;-71
2022/04/16 11:34:21;;;;;;;;;;;10.60;99.90;;;9.31;75.32;96633.63;10496262;28;1984;-73
2022/04/16 11:39:24;;;;;;;;;;;10.50;99.90;;;9.88;74.34;96629.91;10545806;28;1457;-70
2022/04/16 11:44:27;;;;;;;;;;;10.80;99.90;;;9.51;75.56;96637.69;10535618;28;1485;-72
2022/04/16 11:49:31;;;;;;;;;;;10.60;99.90;;;9.17;76.44;96638.50;10536033;28;1461;-71
2022/04/16 11:54:34;;;;;;;;;;;10.30;99.90;;;8.32;82.94;96671.47;10545256;28;1918;-73
2022/04/16 11:59:40;;;;;;;;;;;9.80;99.90;;;8.33;83.69;96649.03;10505695;28;1509;-73
2022/04/16 12:04:43;;;;;;;;;;;9.50;99.90;;;8.22;83.54;96651.72;10503401;28;1468;-70
2022/04/16 12:09:46;;;;;;;;;;;9.20;99.90;;;8.63;81.30;96654.16;10482800;28;1910;-72
2022/04/16 12:14:50;;;;;;;;;;;9.40;99.90;;;8.32;83.99;96662.63;10506388;28;1512;-72
2022/04/16 12:19:53;;;;;;;;;;;9.40;99.90;;;8.32;84.59;96663.44;10489890;28;1477;-72
2022/04/16 12:24:56;;;;;;;;;;;9.20;99.90;;;8.65;82.25;96667.31;10500813;28;1532;-72
2022/04/16 12:29:59;;;;;;;;;;;9.60;99.90;;;8.21;82.93;96661.63;10491109;28;1975;-72
2022/04/16 12:35:02;;;;;;;;;;;9.50;99.90;;;8.92;81.15;96663.03;10485064;28;1517;-71
2022/04/16 12:40:09;;;;;;;;;;;9.60;99.90;;;9.21;76.59;96660.28;10484572;28;1671;-71
2022/04/16 12:45:12;;;;;;;;;;;10.10;99.90;;;9.34;76.52;96657.28;10514215;28;1548;-72
2022/04/16 12:50:15;;;;;;;;;;;10.30;99.90;;;9.74;72.49;96648.25;10513783;28;1909;-72
2022/04/16 12:55:18;;;;;;;;;;;10.60;99.90;;;9.90;71.81;96660.00;10496073;28;1477;-71
2022/04/16 13:00:21;;;;;;;;;;;10.60;99.90;;;9.95;70.26;96646.66;10499639;28;1507;-72
2022/04/16 13:05:27;;;;;;;;;;;11.10;99.90;;;9.87;69.11;96647.06;10506278;28;1449;-73
2022/04/16 13:10:30;;;;;;;;;;;10.90;99.90;;;10.40;66.38;96637.56;10494353;28;1914;-72
2022/04/16 13:15:34;;;;;;;;;;;;;;;10.88;62.56;96636.75;10513834;28;1671;-71
2022/04/16 13:20:37;;;;;;;;;;;11.60;99.90;;;10.54;65.16;96636.09;10515789;28;1403;-71
2022/04/16 13:25:40;;;;;;;;;;;11.60;99.90;;;11.07;62.32;96621.06;10502131;28;1472;-72
2022/04/16 13:30:43;;;;;;;;;;;12.10;99.90;;;11.10;60.93;96625.91;10525522;28;1981;-74
2022/04/16 13:35:46;;;;;;;;;;;12.10;99.90;;;10.51;60.15;96615.13;10500310;28;1552;-72
2022/04/16 13:46:10;;;;;;;;;;;11.30;99.90;;;11.17;58.60;96607.66;10507753;28;1847;-71
2022/04/16 13:51:13;;;;;;;;;;;11.50;99.90;;;10.89;59.92;96610.66;10529859;28;1906;-72
2022/04/16 13:56:16;;;;;;;;;;;12.00;99.90;;;10.39;61.22;96617.13;10494975;28;1457;-73
2022/04/16 14:01:21;;;;;;;;;;;11.70;99.90;;;10.04;61.06;96623.66;10500511;28;1516;-73
2022/04/16 14:06:25;;;;;;;;;;;11.40;99.90;;;9.68;60.87;96611.63;10489941;28;1440;-72
2022/04/16 14:11:28;;;;;;;;;;;10.80;99.90;;;10.23;57.91;96616.13;10496059;28;1896;-74
2022/04/16 14:16:33;;;;;;;;;;;11.00;99.90;;;10.06;59.13;96616.19;10525169;28;1427;-72
2022/04/16 14:21:37;;;;;;;;;;;11.10;99.90;;;10.76;57.41;96604.63;10492093;28;1481;-73
2022/04/16 14:26:42;;;;;;;;;;;11.40;99.90;;;10.43;58.81;96612.84;10501180;28;1575;-73
2022/04/16 14:31:45;;;;;;;;;;;11.70;99.90;;;9.87;59.02;96618.34;10497194;28;1909;-73
2022/04/16 14:36:48;;;;;;;;;;;11.10;99.90;;;10.72;56.09;96616.13;10491322;28;1563;-72
2022/04/16 14:41:51;;;;;;;;;;;11.30;99.90;;;11.36;51.85;96616.97;10508742;28;1599;-72
2022/04/16 14:46:54;;;;;;;;;;;12.00;99.90;;;10.28;55.40;96617.00;10505529;28;1438;-70
2022/04/16 14:51:58;;;;;;;;;;;11.70;99.90;;;9.93;56.06;96619.22;10486458;28;1914;-72
2022/04/16 14:57:02;;;;;;;;;;;11.00;99.90;;;10.69;54.16;96617.47;10502048;28;1453;-72
2022/04/16 15:02:05;;;;;;;;;;;11.40;99.90;;;10.88;52.72;96612.53;10482429;28;1920;-73
2022/04/16 15:07:08;;;;;;;;;;;11.60;99.90;;;10.74;48.43;96614.81;10503496;28;1457;-72
2022/04/16 15:12:11;;;;;;;;;;;11.80;99.90;;;10.50;47.50;96613.50;10508047;28;1982;-72
2022/04/16 15:17:15;;;;;;;;;;;11.70;99.90;;;9.64;51.02;96634.66;10485390;28;1496;-71
2022/04/16 15:22:18;;;;;;;;;;;11.10;99.90;;;9.86;51.18;96629.31;10491027;28;1511;-72
2022/04/16 15:27:21;;;;;;;;;;;10.80;99.90;;;10.14;50.23;96637.22;10488050;28;1413;-72
2022/04/16 15:32:25;;;;;;;;;;;11.00;99.90;;;9.96;47.27;96629.47;10505752;28;1969;-72
2022/04/16 15:37:28;;;;;;;;;;;11.00;99.90;;;9.67;47.71;96632.31;10499643;28;1564;-71
2022/04/16 15:42:33;;;;;;;;;;;10.70;99.90;;;9.87;46.61;96625.59;10503256;28;1600;-72
2022/04/16 15:47:36;;;;;;;;;;;10.80;99.90;;;9.89;44.67;96618.09;10504060;28;1496;-73
2022/04/16 15:52:39;;;;;;;;;;;11.00;99.90;;;9.66;43.17;96627.97;10483581;28;1914;-72
2022/04/16 15:57:42;;;;;;;;;;;10.80;99.90;;;9.59;43.06;96616.59;10485860;28;1485;-71
2022/04/16 16:02:46;;;;;;;;;;;10.50;99.90;;;9.60;43.60;96599.44;10471186;28;1539;-71
2022/04/16 16:07:49;;;;;;;;;;;10.60;99.90;;;9.62;43.55;96607.25;10487577;28;1449;-71
2022/04/16 16:12:54;;;;;;;;;;;10.70;99.90;;;9.68;45.05;96601.72;10504949;28;1899;-72
2022/04/16 16:17:57;;;;;;;;;;;10.80;99.90;;;9.60;43.24;96599.44;10487845;28;1942;-71
2022/04/16 16:23:01;;;;;;;;;;;10.60;99.90;;;9.53;42.53;96616.78;10488721;28;1480;-71
2022/04/16 16:28:05;;;;;;;;;;;10.60;99.90;;;9.53;42.17;96614.91;10492936;28;1498;-72
2022/04/16 16:33:09;;;;;;;;;;;10.50;99.90;;;9.45;42.05;96618.00;10490273;28;1918;-71
2022/04/16 16:38:12;;;;;;;;;;;10.40;99.90;;;9.30;41.82;96621.28;10512224;22;1853;-79
2022/04/16 16:43:16;;;;;;;;;;;10.30;99.90;;;9.10;41.31;96621.75;10487276;28;1488;-82
2022/04/16 16:48:20;;;;;;;;;;;10.20;99.90;;;9.01;40.92;96638.47;10448224;28;1649;-84
2022/04/16 16:53:23;;;;;;;;;;;10.10;99.90;;;8.85;39.74;96640.09;10456453;28;1974;-83
2022/04/16 16:58:31;;;;;;;;;;;10.00;99.90;;;8.82;40.21;96640.56;10473061;28;1583;-83
2022/04/16 17:08:59;;;;;;;;;;;9.80;99.90;;;8.32;43.58;96668.00;10428636;28;1500;-82
2022/04/16 17:19:20;;;;;;;;;;;9.50;99.90;;;7.96;44.44;96679.84;10436606;28;1546;-83
2022/04/16 17:24:24;;;;;;;;;;;9.20;99.90;;;7.80;44.01;96692.06;10458037;28;1542;-82
2022/04/16 17:29:27;;;;;;;;;;;8.90;99.90;;;7.65;44.28;96687.19;10454502;28;1454;-80
2022/04/16 17:34:38;;;;;;;;;;;8.90;99.90;;;7.47;43.49;96704.16;10439831;28;1903;-82
2022/04/16 17:39:41;;;;;;;;;;;8.70;99.90;;;7.34;43.92;96712.38;10470949;28;1507;-82
2022/04/16 17:44:45;;;;;;;;;;;8.50;99.90;;;7.19;43.11;96718.19;10452400;28;1568;-85
2022/04/16 17:49:48;;;;;;;;;;;8.50;99.90;;;7.07;42.20;96724.53;10447159;28;1526;-81
2022/04/16 17:54:51;;;;;;;;;;;8.20;99.90;;;6.88;42.39;96724.59;10453723;28;1890;-84
2022/04/16 17:59:55;;;;;;;;;;;8.20;99.90;;;6.80;42.72;96734.75;10443196;28;1492;-85
2022/04/16 18:04:59;;;;;;;;;;;7.90;99.90;;;6.61;44.13;96744.66;10458842;28;1578;-83
2022/04/16 18:10:03;;;;;;;;;;;8.00;99.90;;;6.55;44.52;96740.22;10460254;28;1259;-83
2022/04/16 18:15:07;;;;;;;;;;;7.70;99.90;;;6.47;44.62;96763.53;10433587;28;1966;-82
2022/04/16 18:20:24;;;;;;;;;;;7.70;99.90;;;6.32;45.41;96763.09;10438842;28;1559;-83
2022/04/16 18:25:36;;;;;;;;;;;7.50;99.90;;;6.22;45.93;96773.44;10433747;28;1448;-83
2022/04/16 18:30:39;;;;;;;;;;;7.40;99.90;;;6.15;45.89;96770.84;10442268;28;1913;-81
2022/04/16 18:35:42;;;;;;;;;;;7.30;99.90;;;6.13;45.93;96777.47;10433992;28;1989;-84
2022/04/16 18:40:46;;;;;;;;;;;7.20;99.90;;;6.03;47.00;96787.81;10430528;28;1507;-81
2022/04/16 18:45:50;;;;;;;;;;;7.30;99.90;;;5.96;47.71;96788.69;10448311;28;1500;-80
2022/04/16 18:51:04;;;;;;;;;;;7.10;99.90;;;5.88;48.22;96796.13;10440048;28;1709;-83
2022/04/16 18:56:09;;;;;;;;;;;7.00;99.90;;;5.75;49.44;96802.41;10450107;28;1973;-83
2022/04/16 19:06:55;;;;;;;;;;;6.90;99.90;;;5.54;51.17;96806.28;10428230;28;1513;-82
2022/04/16 19:11:59;;;;;;;;;;;6.90;99.90;;;5.52;51.85;96815.50;10464823;28;1966;-82
2022/04/16 19:17:14;;;;;;;;;;;6.70;99.90;;;5.41;52.77;96817.84;10465691;28;1625;-82
2022/04/16 19:22:21;;;;;;;;;;;;;;;5.39;52.84;96811.88;10447094;28;1615;-81
2022/04/16 19:27:25;;;;;;;;;;;;;;;5.31;53.70;96822.00;10475492;28;1527;-82
2022/04/16 19:32:28;;;;;;;;;;;;;;;5.20;54.69;96828.81;10446303;28;1969;-84
2022/04/16 19:37:31;;;;;;;;;;;;;;;5.11;56.51;96827.44;10446697;28;1527;-88
2022/04/16 19:42:34;;;;;;;;;;;6.10;99.90;;;5.06;58.12;96827.25;10471544;28;1690;-82
2022/04/16 19:47:46;;;;;;;;;;;6.20;99.90;;;4.93;60.01;96836.13;10476384;28;1593;-82
2022/04/16 19:52:49;;;;;;;;;;;6.90;99.90;;;4.83;61.31;96835.75;10428257;28;1970;-82
2022/04/16 19:57:53;;;;;;;;;;;5.90;99.90;;;4.70;62.55;96836.63;10448541;28;1677;-82
2022/04/16 20:02:56;;;;;;;;;;;5.90;99.90;;;4.66;63.51;96834.63;10445240;28;1543;-83
2022/04/16 20:13:44;;;;;;;;;;;5.60;99.90;;;4.42;66.04;96844.91;10458347;28;1894;-81
2022/04/16 20:18:47;;;;;;;;;;;5.60;99.90;;;4.42;66.28;96852.09;10441282;28;1322;-82
2022/04/16 20:23:50;;;;;;;;;;;5.60;99.90;;;4.36;67.20;96844.94;10432938;28;1538;-81
2022/04/16 20:28:53;;;;;;;;;;;5.40;99.90;;;4.25;67.92;96844.53;10459008;28;1508;-82
2022/04/16 20:33:56;;;;;;;;;;;5.30;99.90;;;4.18;68.67;96846.38;10454518;28;1922;-82
2022/04/16 20:38:59;;;;;;;;;;;5.30;99.90;;;4.18;67.80;96848.22;10437502;28;1497;-79
2022/04/16 20:49:23;;;;;;;;;;;5.20;99.90;;;4.03;67.87;96851.13;10475167;28;1682;-81
2022/04/16 20:54:27;;;;;;;;;;;5.10;99.90;;;3.95;68.33;96851.34;10433263;28;1891;-81
2022/04/16 20:59:43;;;;;;;;;;;5.20;99.90;;;3.91;68.84;96847.44;10427043;28;1870;-84
2022/04/16 21:04:46;;;;;;;;;;;4.90;99.90;;;3.79;69.73;96840.06;10447037;28;1564;-82
2022/04/16 21:09:50;;;;;;;;;;;4.90;99.90;;;3.76;69.24;96845.81;10452663;28;1486;-81
2022/04/16 21:15:06;;;;;;;;;;;4.90;99.90;;;3.70;70.15;96841.31;10442775;28;1964;-85
2022/04/16 21:20:09;;;;;;;;;;;4.80;99.90;;;3.60;71.38;96851.50;10391923;22;3715;-75
2022/04/16 21:25:13;;;;;;;;;;;4.80;99.90;;;3.50;72.00;96846.59;10360164;28;1393;-76
2022/04/16 21:30:17;;;;;;;;;;;4.70;99.90;;;3.45;73.73;96842.91;10363405;28;1491;-76
2022/04/16 21:35:20;;;;;;;;;;;5.00;99.90;;;3.45;74.28;96848.22;10354582;28;1988;-75
2022/04/16 21:40:23;;;;;;;;;;;4.70;99.90;;;3.33;75.66;96842.69;10348861;28;1531;-75
2022/04/16 21:45:27;;;;;;;;;;;4.50;99.90;;;3.31;75.84;96851.88;10358828;28;1538;-74
2022/04/16 21:50:29;;;;;;;;;;;4.20;99.90;;;3.21;76.05;96855.75;10356843;28;1454;-77
2022/04/16 21:55:33;;;;;;;;;;;4.30;99.90;;;3.18;76.48;96857.97;10352757;28;1914;-74
2022/04/16 22:00:36;;;;;;;;;;;4.20;99.90;;;3.06;76.87;96857.75;10362943;28;1386;-75
2022/04/16 22:05:39;;;;;;;;;;;4.20;99.90;;;3.00;77.47;96863.84;10351779;28;1507;-74
2022/04/16 22:10:42;;;;;;;;;;;4.00;99.90;;;2.97;78.43;96869.56;10357890;28;1471;-76
2022/04/16 22:15:45;;;;;;;;;;;4.00;99.90;;;2.81;78.99;96867.25;10354525;28;1983;-75
2022/04/16 22:20:48;;;;;;;;;;;3.90;99.90;;;2.76;79.59;96870.50;10359115;28;1472;-75
2022/04/16 22:25:52;;;;;;;;;;;3.80;99.90;;;2.71;80.02;96872.91;10360575;28;1532;-75
2022/04/16 22:30:54;;;;;;;;;;;3.80;99.90;;;2.68;80.59;96862.72;10365233;28;1524;-75
2022/04/16 22:36:06;;;;;;;;;;;3.70;99.90;;;2.68;80.63;96852.09;10378234;22;3614;-73
2022/04/16 22:41:09;;;;;;;;;;;3.70;99.90;;;2.61;80.73;96857.38;10471818;28;1518;-71
2022/04/16 22:46:15;;;;;;;;;;;;;;;2.52;81.75;96853.22;10463132;28;1578;-72
2022/04/16 22:51:20;;;;;;;;;;;3.70;99.90;;;2.48;82.33;96841.34;10421113;28;1484;-70
2022/04/16 22:56:24;;;;;;;;;;;;;;;2.45;83.09;96847.06;10434413;28;1914;-70
2022/04/16 23:01:27;;;;;;;;;;;;;;;2.36;83.84;96842.94;10415196;28;1543;-72
2022/04/16 23:06:31;;;;;;;;;;;;;;;2.34;83.71;96844.94;10422341;28;1497;-71
2022/04/16 23:11:34;;;;;;;;;;;;;;;2.23;84.36;96848.13;10441478;28;1559;-70
2022/04/16 23:16:38;;;;;;;;;;;;;;;2.23;84.37;96842.84;10421250;28;1922;-71
2022/04/16 23:21:42;;;;;;;;;;;3.30;99.90;;;2.15;84.36;96836.69;10444534;28;1224;-71
2022/04/16 23:26:45;;;;;;;;;;;3.30;99.90;;;2.05;84.37;96820.31;10430883;28;1468;-71
2022/04/16 23:31:49;;;;;;;;;;;3.10;99.90;;;2.00;84.54;96822.72;10416170;28;1505;-72
2022/04/16 23:36:52;;;;;;;;;;;3.10;99.90;;;2.02;85.38;96818.03;10439481;28;1918;-71
2022/04/16 23:41:56;;;;;;;;;;;3.10;99.90;;;1.95;84.62;96801.25;10422555;28;1559;-71
2022/04/16 23:46:59;;;;;;;;;;;3.00;99.90;;;1.95;83.71;96790.66;10423170;28;1497;-71
2022/04/16 23:52:03;;;;;;;;;;;3.10;99.90;;;1.94;84.00;96790.84;10433172;28;1531;-71
2022/04/16 23:57:07;;;;;;;;;;;3.00;99.90;;;1.90;83.76;96787.75;10435052;28;1984;-70
